Time;durP1;ratioP1;P1;durP2;ratioP2;P2;SDS_P1;SDS_P2;PMS_P1;PMS_P2;Temp;Humidity;BMP_temperature;BMP_pressure;BME280_temperature;BME280_humidity;BME280_pressure;Samples;Min_cycle;Max_cycle;Signal;HPM_P1;HPM_P2
2022/12/25 00:00:08;;;;;;;15.97;4.90;;;5.20;99.90;;;;;;4175830;28;20546;-77
2022/12/25 00:02:10;;;;;;;24.27;4.77;;;5.20;99.90;;;;;;4165697;28;20948;-77
2022/12/25 00:04:12;;;;;;;11.50;4.47;;;5.20;99.90;;;;;;4155597;28;20455;-77
2022/12/25 00:06:14;;;;;;;14.23;4.97;;;5.10;99.90;;;;;;4171242;28;20454;-77
2022/12/25 00:08:16;;;;;;;13.63;5.17;;;5.10;99.90;;;;;;4176066;28;20506;-77
2022/12/25 00:10:18;;;;;;;18.30;4.33;;;5.10;99.90;;;;;;4172201;28;20442;-77
2022/12/25 00:12:22;;;;;;;13.00;4.83;;;5.10;99.90;;;;;;4175697;28;21218;-77
2022/12/25 00:14:24;;;;;;;11.83;4.40;;;5.10;99.90;;;;;;4173689;28;20458;-77
2022/12/25 00:16:26;;;;;;;13.23;4.47;;;5.00;99.90;;;;;;4171691;28;20466;-77
2022/12/25 00:18:28;;;;;;;13.50;5.00;;;5.00;99.90;;;;;;4169337;28;20482;-77
2022/12/25 00:20:30;;;;;;;15.93;5.50;;;5.00;99.90;;;;;;4176169;28;20518;-77
2022/12/25 00:22:32;;;;;;;19.73;5.10;;;5.00;99.90;;;;;;4173412;28;20538;-77
2022/12/25 00:24:34;;;;;;;14.30;4.63;;;5.00;99.90;;;;;;4168986;28;20888;-77
2022/12/25 00:26:36;;;;;;;9.77;4.37;;;5.00;99.90;;;;;;4174858;28;20481;-77
2022/12/25 00:28:39;;;;;;;11.97;4.17;;;5.00;99.90;;;;;;4183468;28;20988;-76
2022/12/25 00:30:41;;;;;;;16.00;4.47;;;5.00;99.90;;;;;;4179157;28;20507;-76
2022/12/25 00:32:43;;;;;;;14.57;4.60;;;4.90;99.90;;;;;;4173182;28;20469;-76
2022/12/25 00:34:47;;;;;;;12.97;4.67;;;4.90;99.90;;;;;;4171677;28;20865;-76
2022/12/25 00:36:50;;;;;;;16.00;4.70;;;4.90;99.90;;;;;;4180429;28;20492;-76
2022/12/25 00:38:52;;;;;;;15.60;4.40;;;4.90;99.90;;;;;;4153213;28;20483;-77
2022/12/25 00:40:54;;;;;;;12.97;4.60;;;4.90;99.90;;;;;;4163358;28;20521;-76
2022/12/25 00:42:55;;;;;;;19.83;4.83;;;4.90;99.90;;;;;;4160102;28;21043;-76
2022/12/25 00:45:00;;;;;;;14.17;4.10;;;4.90;99.90;;;;;;4171964;28;20482;-78
2022/12/25 00:47:03;;;;;;;8.10;3.33;;;4.80;99.90;;;;;;4173471;28;20325;-77
2022/12/25 00:49:05;;;;;;;11.43;4.60;;;4.80;99.90;;;;;;4175928;28;21782;-77
2022/12/25 00:51:11;;;;;;;16.83;4.67;;;4.80;99.90;;;;;;4174016;28;21210;-77
2022/12/25 00:53:12;;;;;;;13.47;4.07;;;4.80;99.90;;;;;;4158101;28;20453;-76
2022/12/25 00:55:14;;;;;;;9.23;4.03;;;4.70;99.90;;;;;;4167282;28;21253;-76
2022/12/25 00:57:16;;;;;;;16.17;4.63;;;4.80;99.90;;;;;;4170394;28;20485;-76
2022/12/25 00:59:18;;;;;;;10.43;3.50;;;4.70;99.90;;;;;;4157413;28;20460;-75
2022/12/25 01:01:22;;;;;;;11.17;4.73;;;4.70;99.90;;;;;;4172850;28;20921;-77
2022/12/25 01:03:25;;;;;;;11.30;4.00;;;4.70;99.90;;;;;;4173016;28;20472;-75
2022/12/25 01:05:26;;;;;;;12.80;3.70;;;4.70;99.90;;;;;;4168572;28;20541;-76
2022/12/25 01:07:28;;;;;;;12.83;3.97;;;4.70;99.90;;;;;;4151979;28;20475;-76
2022/12/25 01:11:50;;;;;;;12.63;4.23;;;4.60;99.90;;;;;;4171770;28;20460;-77
2022/12/25 01:13:52;;;;;;;7.87;3.50;;;4.60;99.90;;;;;;4177572;28;20453;-76
2022/12/25 01:15:54;;;;;;;12.50;3.67;;;4.40;99.90;;;;;;4170311;28;20838;-76
2022/12/25 01:17:57;;;;;;;10.37;4.00;;;4.60;99.90;;;;;;4171178;28;20506;-76
2022/12/25 01:19:59;;;;;;;6.63;3.50;;;4.60;99.90;;;;;;4172702;28;20998;-76
2022/12/25 01:22:01;;;;;;;8.27;3.33;;;4.60;99.90;;;;;;4173173;28;20460;-76
2022/12/25 01:24:03;;;;;;;8.57;3.20;;;4.50;99.90;;;;;;4176975;28;20481;-76
2022/12/25 01:26:06;;;;;;;11.70;3.47;;;4.50;99.90;;;;;;4173150;28;20936;-76
2022/12/25 01:28:08;;;;;;;10.60;3.80;;;4.50;99.90;;;;;;4173247;28;20482;-77
2022/12/25 01:30:11;;;;;;;9.37;3.53;;;4.50;99.90;;;;;;4173982;28;20445;-77
2022/12/25 01:32:13;;;;;;;15.57;4.10;;;4.50;99.90;;;;;;4160685;28;20473;-77
2022/12/25 01:34:16;;;;;;;13.50;4.03;;;4.50;99.90;;;;;;4168913;28;20942;-77
2022/12/25 01:36:22;;;;;;;8.27;3.83;;;4.50;99.90;;;;;;4165488;28;20486;-77
2022/12/25 01:38:24;;;;;;;13.67;4.17;;;4.50;99.90;;;;;;4169683;28;20566;-77
2022/12/25 01:40:26;;;;;;;10.97;3.80;;;4.40;99.90;;;;;;4173570;28;20545;-77
2022/12/25 01:42:28;;;;;;;8.17;3.20;;;4.50;99.90;;;;;;4177586;28;20504;-76
2022/12/25 01:45:22;;;;;;;8.77;3.67;;;4.40;99.90;;;;;;4175287;28;20552;-77
2022/12/25 01:47:24;;;;;;;8.30;3.57;;;4.40;99.90;;;;;;4174050;28;21579;-77
2022/12/25 01:49:28;;;;;;;8.23;3.97;;;4.40;99.90;;;;;;4169059;28;21190;-77
2022/12/25 01:51:35;;;;;;;6.70;3.27;;;4.40;99.90;;;;;;4173002;28;20521;-77
2022/12/25 01:53:37;;;;;;;8.43;3.50;;;4.30;99.90;;;;;;4169923;28;20553;-77
2022/12/25 01:55:40;;;;;;;6.40;3.30;;;4.30;99.90;;;;;;4177572;28;20466;-77
2022/12/25 01:57:44;;;;;;;11.60;3.67;;;4.30;99.90;;;;;;4174667;28;20489;-77
2022/12/25 01:59:46;;;;;;;10.70;3.70;;;4.30;99.90;;;;;;4182806;28;20453;-77
2022/12/25 02:01:48;;;;;;;7.23;3.40;;;4.30;99.90;;;;;;4173759;28;20549;-76
2022/12/25 02:03:54;;;;;;;11.20;3.77;;;4.20;99.90;;;;;;4169790;28;20462;-77
2022/12/25 02:05:58;;;;;;;8.33;3.70;;;4.20;99.90;;;;;;4173372;28;20556;-77
2022/12/25 02:08:07;;;;;;;7.57;3.77;;;4.20;99.90;;;;;;4178583;28;20976;-77
2022/12/25 02:10:10;;;;;;;11.03;3.80;;;4.10;99.90;;;;;;4168540;28;20504;-77
2022/12/25 02:12:17;;;;;;;11.70;4.50;;;4.10;99.90;;;;;;4168499;28;20497;-77
2022/12/25 02:14:19;;;;;;;8.03;3.50;;;4.10;99.90;;;;;;4180478;28;20974;-77
2022/12/25 02:16:24;;;;;;;10.23;4.07;;;4.10;99.90;;;;;;4170837;28;20548;-77
2022/12/25 02:18:36;;;;;;;7.60;3.60;;;4.10;99.90;;;;;;4170055;28;20482;-77
2022/12/25 02:21:22;;;;;;;10.17;3.93;;;4.10;99.90;;;;;;4172725;28;20476;-77
2022/12/25 02:23:42;;;;;;;6.83;3.60;;;4.10;99.90;;;;;;4132803;28;20488;-77
2022/12/25 02:25:58;;;;;;;10.83;3.40;;;4.00;99.90;;;;;;4172764;28;20951;-77
2022/12/25 02:28:19;;;;;;;12.40;3.40;;;4.00;99.90;;;;;;4167116;28;20485;-77
2022/12/25 02:30:22;;;;;;;13.43;4.97;;;4.00;99.90;;;;;;4166738;28;20549;-77
2022/12/25 02:32:29;;;;;;;11.30;3.97;;;4.10;99.90;;;;;;4170473;28;20955;-77
2022/12/25 02:34:36;;;;;;;10.03;3.67;;;4.10;99.90;;;;;;4168878;28;20805;-77
2022/12/25 02:36:45;;;;;;;7.40;3.70;;;4.10;99.90;;;;;;4172702;28;20464;-77
2022/12/25 02:41:16;;;;;;;11.83;4.00;;;4.20;99.90;;;;;;4176010;28;20546;-77
2022/12/25 03:07:09;;;;;;;9.87;3.83;;;4.40;99.90;;;;;;4170593;28;20453;-77
2022/12/25 03:11:36;;;;;;;10.33;4.07;;;4.40;99.90;;;;;;4179384;28;20441;-77
2022/12/25 03:13:41;;;;;;;10.23;4.17;;;4.50;99.90;;;;;;4174392;28;20998;-77
2022/12/25 03:18:08;;;;;;;9.67;4.33;;;4.40;99.90;;;;;;4178643;28;20562;-77
2022/12/25 03:27:13;;;;;;;7.67;3.70;;;4.40;99.90;;;;;;4163247;28;20449;-77
2022/12/25 03:31:10;;;;;;;11.27;4.30;;;4.30;99.90;;;;;;4166847;28;20899;-77
2022/12/25 03:31:45;;;;;;;7.33;3.70;;;4.40;99.90;;;;;;4172789;28;20469;-76
2022/12/25 03:36:34;;;;;;;12.20;4.20;;;4.40;99.90;;;;;;4162581;28;20497;-77
2022/12/25 04:38:07;;;;;;;15.90;4.80;;;4.10;99.90;;;;;;4176397;28;20552;-77
2022/12/25 04:40:09;;;;;;;14.50;4.30;;;4.10;99.90;;;;;;4175775;28;20481;-77
2022/12/25 04:42:11;;;;;;;9.93;4.47;;;4.10;99.90;;;;;;4156452;28;20896;-77
2022/12/25 04:44:13;;;;;;;9.80;4.20;;;4.10;99.90;;;;;;4180924;28;20544;-77
2022/12/25 04:46:15;;;;;;;17.67;4.80;;;4.10;99.90;;;;;;4177259;28;20484;-77
2022/12/25 04:48:17;;;;;;;9.77;4.00;;;4.10;99.90;;;;;;4172688;28;20563;-77
2022/12/25 04:50:19;;;;;;;9.30;3.93;;;4.20;99.90;;;;;;4155074;28;20458;-78
2022/12/25 04:52:21;;;;;;;9.43;4.47;;;4.20;99.90;;;;;;4176655;28;20476;-78
2022/12/25 04:54:24;;;;;;;13.07;4.57;;;4.10;99.90;;;;;;4171026;28;20453;-77
2022/12/25 04:56:26;;;;;;;8.50;3.67;;;4.20;99.90;;;;;;4179537;28;20449;-78
2022/12/25 04:58:28;;;;;;;10.77;3.70;;;4.20;99.90;;;;;;4179732;28;20477;-78
2022/12/25 05:00:30;;;;;;;8.73;4.03;;;4.30;99.90;;;;;;4154148;28;20549;-78
2022/12/25 05:02:32;;;;;;;7.97;4.07;;;4.20;99.90;;;;;;4172603;28;20458;-78
2022/12/25 05:04:34;;;;;;;6.83;3.33;;;4.20;99.90;;;;;;4161043;28;20446;-77
2022/12/25 05:06:36;;;;;;;10.00;3.87;;;4.20;99.90;;;;;;4174946;28;20544;-78
2022/12/25 05:08:38;;;;;;;10.37;3.80;;;4.20;99.90;;;;;;4169614;28;21076;-78
2022/12/25 05:10:41;;;;;;;11.10;4.37;;;4.10;99.90;;;;;;4177455;28;20911;-78
2022/12/25 05:12:43;;;;;;;10.47;4.53;;;4.10;99.90;;;;;;4175149;28;20506;-77
2022/12/25 05:14:45;;;;;;;10.37;3.50;;;4.10;99.90;;;;;;4180281;28;20471;-78
2022/12/25 05:16:47;;;;;;;7.47;4.20;;;4.10;99.90;;;;;;4167900;28;20448;-77
2022/12/25 05:18:50;;;;;;;12.93;4.50;;;4.10;99.90;;;;;;4180877;28;20464;-78
2022/12/25 05:20:53;;;;;;;9.13;4.13;;;4.00;99.90;;;;;;4176974;28;20492;-78
2022/12/25 05:22:55;;;;;;;9.30;4.00;;;4.00;99.90;;;;;;4173959;28;20491;-77
2022/12/25 05:24:57;;;;;;;11.73;5.10;;;4.00;99.90;;;;;;4152494;28;20545;-77
2022/12/25 05:27:00;;;;;;;8.50;4.20;;;4.00;99.90;;;;;;4168705;28;20540;-77
2022/12/25 05:29:02;;;;;;;11.13;4.77;;;4.00;99.90;;;;;;4177086;28;20472;-77
2022/12/25 05:31:04;;;;;;;11.50;4.20;;;4.10;99.90;;;;;;4176346;28;20959;-77
2022/12/25 05:33:06;;;;;;;11.27;5.27;;;4.00;99.90;;;;;;4156397;28;20481;-77
2022/12/25 05:35:08;;;;;;;9.00;4.23;;;4.10;99.90;;;;;;4165121;28;20988;-77
2022/12/25 05:37:10;;;;;;;12.77;4.43;;;4.10;99.90;;;;;;4176553;28;20531;-78
2022/12/25 05:39:12;;;;;;;9.83;4.63;;;4.10;99.90;;;;;;4177148;28;20453;-77
2022/12/25 05:41:14;;;;;;;11.63;4.63;;;4.10;99.90;;;;;;4168303;28;20477;-77
2022/12/25 05:43:18;;;;;;;12.20;4.00;;;4.10;99.90;;;;;;4179170;28;20453;-78
2022/12/25 05:45:21;;;;;;;12.77;4.57;;;4.10;99.90;;;;;;4160604;28;20509;-77
2022/12/25 05:47:23;;;;;;;9.10;4.43;;;4.20;99.90;;;;;;4167851;28;20518;-77
2022/12/25 05:49:25;;;;;;;14.13;4.73;;;4.20;99.90;;;;;;4168947;28;20813;-77
2022/12/25 05:51:27;;;;;;;17.93;5.27;;;4.20;99.90;;;;;;4180817;28;20552;-77
2022/12/25 05:53:29;;;;;;;14.00;5.10;;;4.20;99.90;;;;;;4171860;28;20499;-78
2022/12/25 05:55:33;;;;;;;12.33;4.87;;;4.30;99.90;;;;;;4172879;28;20481;-78
2022/12/25 05:57:36;;;;;;;10.73;4.93;;;4.30;99.90;;;;;;4167251;28;20512;-77
2022/12/25 05:59:39;;;;;;;13.10;4.73;;;4.30;99.90;;;;;;4171981;28;20473;-78
2022/12/25 06:01:41;;;;;;;10.87;4.40;;;4.30;99.90;;;;;;4176893;28;20755;-78
2022/12/25 06:03:43;;;;;;;12.20;4.90;;;4.30;99.90;;;;;;4166986;28;20545;-78
2022/12/25 06:05:49;;;;;;;11.30;4.30;;;4.40;99.90;;;;;;4177183;28;20448;-77
2022/12/25 06:07:52;;;;;;;17.60;5.20;;;4.40;99.90;;;;;;4155977;28;20541;-78
2022/12/25 06:09:53;;;;;;;10.00;4.43;;;4.30;99.90;;;;;;4171190;28;20455;-78
2022/12/25 06:11:55;;;;;;;13.53;4.73;;;4.30;99.90;;;;;;4177986;28;20468;-77
2022/12/25 06:13:57;;;;;;;10.10;4.17;;;4.30;99.90;;;;;;4178470;28;20480;-77
2022/12/25 06:16:04;;;;;;;11.70;4.40;;;4.30;99.90;;;;;;4174452;28;20533;-77
2022/12/25 06:18:06;;;;;;;16.93;4.63;;;4.30;99.90;;;;;;4173864;28;20481;-77
2022/12/25 06:20:09;;;;;;;12.03;4.30;;;4.30;99.90;;;;;;4177176;28;20487;-77
2022/12/25 06:22:11;;;;;;;10.97;4.90;;;4.30;99.90;;;;;;4153696;28;20485;-77
2022/12/25 06:24:13;;;;;;;12.30;4.50;;;4.30;99.90;;;;;;4178897;28;20851;-77
2022/12/25 06:26:18;;;;;;;13.30;4.10;;;4.30;99.90;;;;;;4157479;28;20851;-78
2022/12/25 06:28:20;;;;;;;9.70;4.17;;;4.30;99.90;;;;;;4170205;28;20481;-78
2022/12/25 06:30:22;;;;;;;12.87;4.97;;;4.30;99.90;;;;;;4178920;28;20549;-78
2022/12/25 06:32:25;;;;;;;13.53;4.63;;;4.30;99.90;;;;;;4172534;28;20496;-78
2022/12/25 06:34:27;;;;;;;10.87;4.23;;;4.20;99.90;;;;;;4167982;28;20545;-78
2022/12/25 06:36:29;;;;;;;11.13;4.67;;;4.20;99.90;;;;;;4174006;28;20473;-77
2022/12/25 06:38:31;;;;;;;15.43;5.57;;;4.30;99.90;;;;;;4170652;28;20520;-78
2022/12/25 06:40:36;;;;;;;11.70;4.90;;;4.20;99.90;;;;;;4174401;28;20536;-78
2022/12/25 06:42:38;;;;;;;12.13;4.87;;;4.20;99.90;;;;;;4153759;28;20470;-77
2022/12/25 06:44:40;;;;;;;10.17;5.07;;;4.20;99.90;;;;;;4174122;28;21005;-78
2022/12/25 06:46:41;;;;;;;10.77;4.77;;;4.30;99.90;;;;;;4169386;28;20494;-78
2022/12/25 06:48:48;;;;;;;20.60;5.93;;;4.30;99.90;;;;;;4172449;28;20985;-77
2022/12/25 06:50:50;;;;;;;10.43;5.33;;;4.30;99.90;;;;;;4176039;28;20453;-77
2022/12/25 06:52:52;;;;;;;17.43;5.23;;;4.30;99.90;;;;;;4152234;28;20981;-78
2022/12/25 06:54:53;;;;;;;16.23;5.77;;;4.30;99.90;;;;;;4162425;28;20450;-77
2022/12/25 06:56:55;;;;;;;13.40;5.13;;;4.40;99.90;;;;;;4170817;28;20502;-77
2022/12/25 06:58:59;;;;;;;10.40;4.30;;;4.40;99.90;;;;;;4172989;28;20992;-78
2022/12/25 07:01:13;;;;;;;12.43;4.90;;;4.40;99.90;;;;;;4171876;28;20445;-77
2022/12/25 07:03:20;;;;;;;14.70;5.50;;;4.40;99.90;;;;;;4171726;28;20528;-77
2022/12/25 07:05:24;;;;;;;9.87;4.10;;;4.40;99.90;;;;;;4168824;28;20453;-77
2022/12/25 07:07:26;;;;;;;13.67;4.80;;;4.50;99.90;;;;;;4175964;28;20466;-78
2022/12/25 07:09:28;;;;;;;13.93;5.37;;;4.40;99.90;;;;;;4170986;28;20482;-78
2022/12/25 07:11:30;;;;;;;11.63;4.77;;;4.50;99.90;;;;;;4167516;28;20458;-78
2022/12/25 07:13:32;;;;;;;9.93;4.47;;;4.50;99.90;;;;;;4171141;28;20493;-77
2022/12/25 07:15:34;;;;;;;11.03;4.30;;;4.50;99.90;;;;;;4160238;28;21070;-78
2022/12/25 07:17:36;;;;;;;8.10;4.30;;;4.50;99.90;;;;;;4172411;28;20560;-77
2022/12/25 07:19:38;;;;;;;10.80;4.30;;;4.50;99.90;;;;;;4174257;28;20930;-78
2022/12/25 07:21:41;;;;;;;13.00;4.83;;;4.50;99.90;;;;;;4176255;28;20485;-78
2022/12/25 07:23:45;;;;;;;17.17;5.63;;;4.50;99.90;;;;;;4172313;28;20516;-78
2022/12/25 07:25:53;;;;;;;15.37;5.10;;;4.50;99.90;;;;;;4165038;28;20493;-78
2022/12/25 07:27:55;;;;;;;13.63;4.73;;;4.50;99.90;;;;;;4171165;28;20511;-78
2022/12/25 07:29:57;;;;;;;11.80;4.77;;;4.50;99.90;;;;;;4168918;28;20946;-77
2022/12/25 07:31:59;;;;;;;9.07;4.43;;;4.60;99.90;;;;;;4173903;28;20526;-78
2022/12/25 07:34:02;;;;;;;11.23;4.77;;;4.50;99.90;;;;;;4160489;28;21006;-77
2022/12/25 07:36:05;;;;;;;14.23;4.77;;;4.60;99.90;;;;;;4167155;28;20529;-78
2022/12/25 07:38:08;;;;;;;17.10;6.13;;;4.60;99.90;;;;;;4166738;28;20489;-78
2022/12/25 07:40:11;;;;;;;16.07;5.63;;;4.60;99.90;;;;;;4161094;28;20456;-78
2022/12/25 07:42:12;;;;;;;13.77;4.90;;;4.60;99.90;;;;;;4174977;28;20492;-78
2022/12/25 07:44:15;;;;;;;11.57;5.03;;;4.60;99.90;;;;;;4158106;28;20463;-77
2022/12/25 07:46:17;;;;;;;15.70;5.10;;;4.70;99.90;;;;;;4176251;28;20474;-78
2022/12/25 07:48:18;;;;;;;13.93;5.57;;;4.70;99.90;;;;;;4166285;28;20566;-78
2022/12/25 07:50:21;;;;;;;15.07;5.00;;;4.70;99.90;;;;;;4159943;28;21003;-78
2022/12/25 07:52:22;;;;;;;16.03;5.30;;;4.70;99.90;;;;;;4169666;28;20452;-78
2022/12/25 07:54:26;;;;;;;10.77;4.60;;;4.80;99.90;;;;;;4182965;28;20463;-78
2022/12/25 07:56:28;;;;;;;10.40;4.90;;;4.80;99.90;;;;;;4167634;28;20461;-78
2022/12/25 07:58:31;;;;;;;10.40;4.50;;;4.80;99.90;;;;;;4160602;28;20474;-78
2022/12/25 08:00:33;;;;;;;13.60;4.63;;;4.90;99.90;;;;;;4177909;28;20446;-77
2022/12/25 08:02:35;;;;;;;9.00;4.00;;;4.90;99.90;;;;;;4156095;28;20611;-78
2022/12/25 08:04:37;;;;;;;11.73;3.97;;;5.00;99.90;;;;;;4165007;28;20537;-78
2022/12/25 08:06:39;;;;;;;11.50;4.17;;;5.00;99.90;;;;;;4166836;28;20536;-77
2022/12/25 08:08:41;;;;;;;18.80;5.23;;;5.00;99.90;;;;;;4165909;28;20490;-77
2022/12/25 08:10:50;;;;;;;9.97;4.43;;;5.00;99.90;;;;;;4167143;28;20455;-78
2022/12/25 08:12:55;;;;;;;12.00;4.80;;;5.10;99.90;;;;;;4167508;28;21122;-77
2022/12/25 08:14:57;;;;;;;15.13;4.70;;;5.10;99.90;;;;;;4168367;28;20822;-78
2022/12/25 08:16:58;;;;;;;16.67;5.20;;;5.20;99.90;;;;;;4168566;28;20574;-77
2022/12/25 08:19:01;;;;;;;18.97;4.10;;;5.20;99.90;;;;;;4176150;28;20459;-77
2022/12/25 08:21:04;;;;;;;11.40;4.07;;;5.20;99.90;;;;;;4177702;28;21103;-77
2022/12/25 08:23:06;;;;;;;8.50;4.00;;;5.30;99.90;;;;;;4169618;28;20517;-77
2022/12/25 08:25:09;;;;;;;13.80;4.57;;;5.30;99.90;;;;;;4171337;28;20446;-77
2022/12/25 08:27:15;;;;;;;15.03;4.97;;;5.40;99.90;;;;;;4158562;28;20544;-77
2022/12/25 08:29:17;;;;;;;10.90;4.33;;;5.40;99.90;;;;;;4173662;28;20501;-77
2022/12/25 08:31:21;;;;;;;13.93;5.40;;;5.50;99.90;;;;;;4170924;28;20494;-77
2022/12/25 08:33:23;;;;;;;12.47;4.23;;;5.50;99.90;;;;;;4174003;28;20533;-77
2022/12/25 08:35:25;;;;;;;11.47;4.53;;;5.60;99.90;;;;;;4176124;28;20486;-77
2022/12/25 08:37:30;;;;;;;11.60;4.50;;;5.60;99.90;;;;;;4166575;28;20976;-77
2022/12/25 08:39:32;;;;;;;10.80;4.50;;;5.70;99.90;;;;;;4172594;28;20467;-77
2022/12/25 08:41:35;;;;;;;10.60;4.70;;;5.70;99.90;;;;;;4172531;28;20462;-77
2022/12/25 08:43:38;;;;;;;10.23;5.33;;;5.70;99.90;;;;;;4172776;28;20520;-77
2022/12/25 08:45:40;;;;;;;14.47;4.80;;;5.80;99.90;;;;;;4174566;28;20467;-76
2022/12/25 08:47:42;;;;;;;10.00;4.47;;;5.80;99.90;;;;;;4154779;28;20472;-77
2022/12/25 08:49:44;;;;;;;11.53;5.53;;;5.90;99.90;;;;;;4156760;28;20868;-77
2022/12/25 08:51:46;;;;;;;14.20;4.90;;;5.90;99.90;;;;;;4167411;28;20464;-77
2022/12/25 08:53:49;;;;;;;10.73;4.90;;;6.00;99.90;;;;;;4153912;28;20556;-77
2022/12/25 08:55:57;;;;;;;13.63;4.77;;;6.00;99.90;;;;;;4181229;28;20466;-77
2022/12/25 08:57:59;;;;;;;13.33;4.80;;;6.10;99.90;;;;;;4160466;28;20485;-77
2022/12/25 09:00:03;;;;;;;13.70;5.13;;;6.10;99.90;;;;;;4177709;28;20544;-77
2022/12/25 09:02:05;;;;;;;10.73;4.70;;;6.20;99.90;;;;;;4160587;28;20935;-77
2022/12/25 09:04:07;;;;;;;14.77;5.07;;;6.30;99.90;;;;;;4164491;28;21008;-77
2022/12/25 09:06:14;;;;;;;13.33;4.47;;;6.30;99.90;;;;;;4179689;28;20455;-77
2022/12/25 09:08:16;;;;;;;9.67;4.33;;;6.40;99.90;;;;;;4164015;28;20492;-77
2022/12/25 09:10:18;;;;;;;11.17;4.53;;;6.40;99.90;;;;;;4152137;28;20883;-78
2022/12/25 09:12:20;;;;;;;14.23;5.33;;;6.50;99.90;;;;;;4157034;28;20482;-78
2022/12/25 09:14:22;;;;;;;10.93;4.47;;;6.50;99.90;;;;;;4177206;28;20504;-78
2022/12/25 09:16:25;;;;;;;13.73;4.97;;;6.60;99.90;;;;;;4177193;28;20460;-78
2022/12/25 09:18:30;;;;;;;13.03;4.77;;;6.60;99.90;;;;;;4174103;28;20472;-78
2022/12/25 09:20:32;;;;;;;14.83;5.00;;;6.80;99.90;;;;;;4172829;28;20449;-78
2022/12/25 09:22:34;;;;;;;16.60;5.33;;;6.80;99.90;;;;;;4170279;28;20546;-78
2022/12/25 09:24:38;;;;;;;10.87;4.70;;;6.80;99.90;;;;;;4173007;28;20460;-77
2022/12/25 09:26:39;;;;;;;15.77;5.33;;;6.90;99.90;;;;;;4177736;28;20464;-78
2022/12/25 09:28:42;;;;;;;14.60;4.90;;;7.00;99.90;;;;;;4172381;28;20480;-78
2022/12/25 09:30:43;;;;;;;11.40;4.90;;;7.00;99.90;;;;;;4160541;28;20461;-78
2022/12/25 09:32:47;;;;;;;18.17;5.30;;;7.10;99.90;;;;;;4175353;28;20511;-78
2022/12/25 09:34:50;;;;;;;15.73;4.93;;;7.10;99.90;;;;;;4164663;28;20452;-78
2022/12/25 09:36:52;;;;;;;13.50;4.93;;;7.20;99.90;;;;;;4165551;28;20468;-78
2022/12/25 09:38:54;;;;;;;12.17;4.87;;;7.30;99.90;;;;;;4171773;28;20497;-78
2022/12/25 09:41:02;;;;;;;16.77;6.53;;;7.30;99.90;;;;;;4173649;28;20496;-78
2022/12/25 09:43:05;;;;;;;20.27;7.30;;;7.30;99.90;;;;;;4178071;28;20537;-78
2022/12/25 09:45:14;;;;;;;15.27;5.50;;;7.40;99.90;;;;;;4175539;28;20949;-78
2022/12/25 09:47:19;;;;;;;23.93;7.87;;;7.40;99.90;;;;;;4175695;28;20544;-78
2022/12/25 09:49:32;;;;;;;11.60;4.53;;;7.40;99.90;;;;;;4174384;28;20463;-77
2022/12/25 09:51:37;;;;;;;16.10;5.03;;;7.50;99.90;;;;;;4173103;28;20997;-79
2022/12/25 09:53:41;;;;;;;14.50;4.50;;;7.60;99.90;;;;;;4167915;28;20442;-77
2022/12/25 09:55:49;;;;;;;17.30;5.13;;;7.60;99.90;;;;;;4174213;28;20460;-77
2022/12/25 09:57:54;;;;;;;14.90;4.63;;;7.70;99.90;;;;;;4172307;28;20492;-77
2022/12/25 09:59:56;;;;;;;16.03;5.00;;;7.70;99.90;;;;;;4170840;28;20462;-77
2022/12/25 10:02:19;;;;;;;10.73;4.80;;;7.80;99.90;;;;;;4153667;28;20550;-78
2022/12/25 10:04:35;;;;;;;13.53;5.00;;;7.90;99.90;;;;;;4171786;28;20503;-78
2022/12/25 10:06:47;;;;;;;12.47;5.17;;;7.90;99.90;;;;;;4159067;28;20468;-78
2022/12/25 10:09:22;;;;;;;16.20;5.63;;;8.00;99.90;;;;;;4159487;28;20500;-77
2022/12/25 10:11:38;;;;;;;18.83;4.90;;;8.10;99.90;;;;;;4167219;28;20453;-77
2022/12/25 10:13:58;;;;;;;10.57;4.20;;;8.10;99.90;;;;;;4173588;28;20476;-78
2022/12/25 10:16:11;;;;;;;16.43;4.70;;;8.10;99.90;;;;;;4150391;28;20708;-78
2022/12/25 10:18:54;;;;;;;19.13;5.23;;;8.20;99.90;;;;;;4169453;28;20227;-77
2022/12/25 10:21:00;;;;;;;13.93;4.97;;;8.20;99.90;;;;;;4134329;28;20549;-78
2022/12/25 10:23:06;;;;;;;9.10;4.33;;;8.30;99.90;;;;;;4176769;28;20224;-77
2022/12/25 10:25:17;;;;;;;14.43;4.67;;;8.30;99.90;;;;;;4156574;28;20451;-78
2022/12/25 10:27:32;;;;;;;10.83;4.80;;;8.40;99.90;;;;;;4173067;28;20471;-77
2022/12/25 10:29:37;;;;;;;12.63;4.57;;;8.50;99.90;;;;;;4155945;28;20466;-77
2022/12/25 10:31:40;;;;;;;13.67;4.87;;;8.50;99.90;;;;;;4152646;28;20211;-77
2022/12/25 10:33:42;;;;;;;13.23;5.13;;;8.60;99.90;;;;;;4167996;28;20704;-77
2022/12/25 10:35:45;;;;;;;11.53;4.77;;;8.60;99.90;;;;;;4175575;28;20206;-77
2022/12/25 10:37:53;;;;;;;9.60;4.30;;;8.70;99.90;;;;;;4174446;28;20315;-77
2022/12/25 10:39:56;;;;;;;10.17;4.30;;;8.70;99.90;;;;;;4168037;28;20302;-76
2022/12/25 10:42:10;;;;;;;12.20;4.60;;;8.80;99.90;;;;;;4157370;28;20223;-77
2022/12/25 10:44:14;;;;;;;9.67;4.27;;;8.90;99.90;;;;;;4176392;28;20241;-76
2022/12/25 10:46:17;;;;;;;13.03;4.23;;;8.90;99.90;;;;;;4182601;28;20290;-77
2022/12/25 10:48:24;;;;;;;10.60;4.43;;;9.00;99.90;;;;;;4167904;28;20736;-77
2022/12/25 10:50:27;;;;;;;10.70;4.47;;;9.10;99.90;;;;;;4173584;28;20730;-77
2022/12/25 10:52:29;;;;;;;12.90;4.27;;;9.10;99.90;;;;;;4169582;28;20239;-77
2022/12/25 10:54:34;;;;;;;10.80;4.40;;;9.10;99.90;;;;;;4167765;28;20789;-77
2022/12/25 10:56:37;;;;;;;11.50;4.27;;;9.20;99.90;;;;;;4177354;28;20286;-77
2022/12/25 10:58:38;;;;;;;10.77;4.30;;;9.20;99.90;;;;;;4170066;28;20659;-77
2022/12/25 11:00:40;;;;;;;10.80;4.37;;;9.20;99.90;;;;;;4170701;28;20234;-77
2022/12/25 11:02:42;;;;;;;9.70;4.67;;;9.30;99.90;;;;;;4170822;28;20625;-77
2022/12/25 11:04:44;;;;;;;12.00;4.73;;;9.30;99.90;;;;;;4161619;28;20223;-77
2022/12/25 11:06:57;;;;;;;11.03;4.40;;;9.30;99.90;;;;;;4162050;28;20206;-77
2022/12/25 11:09:01;;;;;;;10.83;4.40;;;9.30;99.90;;;;;;4169308;28;20263;-77
2022/12/25 11:11:06;;;;;;;14.60;4.60;;;9.30;99.90;;;;;;4173156;28;20218;-77
2022/12/25 11:13:24;;;;;;;11.93;3.77;;;9.40;99.90;;;;;;4176806;28;20203;-77
2022/12/25 11:15:34;;;;;;;11.47;4.30;;;9.40;99.90;;;;;;4155673;28;20227;-76
2022/12/25 11:17:36;;;;;;;10.87;3.93;;;9.50;99.90;;;;;;4184404;28;20867;-77
2022/12/25 11:19:38;;;;;;;14.53;4.33;;;9.40;99.90;;;;;;4174519;28;20282;-77
2022/12/25 11:21:49;;;;;;;17.43;7.67;;;9.40;99.90;;;;;;4164142;28;20193;-77
2022/12/25 11:23:57;;;;;;;23.07;10.20;;;9.40;99.90;;;;;;4167610;28;20240;-77
2022/12/25 11:26:01;;;;;;;13.67;5.03;;;9.40;99.90;;;;;;4154816;28;20238;-77
2022/12/25 11:28:06;;;;;;;10.13;4.60;;;9.40;99.90;;;;;;4173493;28;20255;-77
2022/12/25 11:30:15;;;;;;;10.60;4.07;;;9.40;99.90;;;;;;4166424;28;20219;-77
2022/12/25 11:32:22;;;;;;;15.13;4.60;;;9.40;99.90;;;;;;4171480;28;20295;-77
2022/12/25 11:34:30;;;;;;;11.97;3.80;;;9.40;99.90;;;;;;4148904;28;21171;-77
2022/12/25 11:36:42;;;;;;;10.53;4.40;;;9.40;99.90;;;;;;4172014;28;20239;-77
2022/12/25 11:38:44;;;;;;;9.87;3.90;;;9.40;99.90;;;;;;4159866;28;20223;-77
2022/12/25 11:40:49;;;;;;;9.43;4.53;;;9.40;99.90;;;;;;4174358;28;20206;-77
2022/12/25 11:42:55;;;;;;;14.67;4.90;;;9.50;99.90;;;;;;4169555;28;20216;-77
2022/12/25 11:45:02;;;;;;;9.47;4.63;;;9.50;99.90;;;;;;4167184;28;20220;-77
2022/12/25 11:47:11;;;;;;;7.93;3.83;;;9.50;99.90;;;;;;4171732;28;20579;-77
2022/12/25 11:49:17;;;;;;;11.17;4.30;;;9.50;99.90;;;;;;4155554;28;20219;-77
2022/12/25 11:51:20;;;;;;;10.37;4.90;;;9.50;99.90;;;;;;4170737;28;20213;-78
2022/12/25 11:53:29;;;;;;;13.97;5.20;;;9.50;99.90;;;;;;4166538;28;20218;-78
2022/12/25 11:55:37;;;;;;;14.47;5.00;;;9.50;99.90;;;;;;4169017;28;20285;-78
2022/12/25 11:57:44;;;;;;;8.40;4.70;;;9.50;99.90;;;;;;4175905;28;20254;-78
2022/12/25 11:59:54;;;;;;;9.43;5.60;;;9.60;99.90;;;;;;4154898;28;20217;-78
2022/12/25 12:02:03;;;;;;;12.23;5.37;;;9.60;99.90;;;;;;4168665;28;20214;-78
2022/12/25 12:04:13;;;;;;;13.37;5.53;;;9.60;99.90;;;;;;4166252;28;20239;-77
2022/12/25 12:06:21;;;;;;;9.97;4.70;;;9.70;99.90;;;;;;4174667;28;20985;-78
2022/12/25 12:08:23;;;;;;;9.73;4.30;;;9.70;99.90;;;;;;4172253;28;20275;-78
2022/12/25 12:10:36;;;;;;;11.70;4.00;;;9.80;99.90;;;;;;4167748;28;20267;-78
2022/12/25 12:12:48;;;;;;;8.53;4.00;;;9.80;99.90;;;;;;4164280;28;20205;-78
2022/12/25 12:14:57;;;;;;;8.67;3.87;;;9.90;99.90;;;;;;4189201;28;20201;-77
2022/12/25 12:17:01;;;;;;;14.47;4.40;;;10.00;99.90;;;;;;4171417;28;20251;-78
2022/12/25 12:19:11;;;;;;;9.20;3.83;;;10.00;99.90;;;;;;4175139;28;20296;-78
2022/12/25 12:21:21;;;;;;;10.50;4.03;;;10.10;99.90;;;;;;4175435;28;20719;-78
2022/12/25 12:23:23;;;;;;;12.20;4.13;;;10.10;99.90;;;;;;4176209;28;20640;-78
2022/12/25 12:25:26;;;;;;;6.93;3.73;;;10.20;99.90;;;;;;4175243;28;20720;-78
2022/12/25 12:27:34;;;;;;;8.73;4.10;;;10.20;99.90;;;;;;4170428;28;20263;-78
2022/12/25 12:29:42;;;;;;;9.07;4.33;;;10.20;99.90;;;;;;4173404;28;20213;-77
2022/12/25 12:31:48;;;;;;;11.10;4.80;;;10.30;99.90;;;;;;4157232;28;20707;-78